Time;durP1;ratioP1;P1;durP2;ratioP2;P2;SDS_P1;SDS_P2;PMS_P1;PMS_P2;Temp;Humidity;BMP_temperature;BMP_pressure;BME280_temperature;BME280_humidity;BME280_pressure;Samples;Min_cycle;Max_cycle;Signal;HPM_P1;HPM_P2
2023/09/14 00:01:46;;;;;;;;;;;20.10;64.60;;;;;;5050243;28;19932;-70
2023/09/14 00:04:12;;;;;;;;;;;20.00;64.40;;;;;;5067905;28;20301;-70
2023/09/14 00:06:38;;;;;;;;;;;20.00;64.50;;;;;;5052078;28;19917;-70
2023/09/14 00:09:04;;;;;;;;;;;19.90;64.80;;;;;;5052167;28;19923;-70
2023/09/14 00:11:30;;;;;;;;;;;19.90;64.80;;;;;;5051470;28;20439;-70
2023/09/14 00:13:56;;;;;;;;;;;19.90;65.40;;;;;;5067757;28;20362;-70
2023/09/14 00:16:22;;;;;;;;;;;19.90;65.40;;;;;;5050565;28;19917;-70
2023/09/14 00:18:48;;;;;;;;;;;19.90;65.40;;;;;;5066695;28;19963;-70
2023/09/14 00:21:14;;;;;;;;;;;19.90;65.40;;;;;;5051252;28;19924;-70
2023/09/14 00:23:40;;;;;;;;;;;19.90;65.60;;;;;;5052357;28;19921;-71
2023/09/14 00:26:06;;;;;;;;;;;19.90;65.60;;;;;;5067303;28;19927;-70
2023/09/14 00:28:32;;;;;;;;;;;19.90;65.60;;;;;;5050809;28;20020;-70
2023/09/14 00:30:57;;;;;;;;;;;19.90;65.60;;;;;;5049876;28;19924;-70
2023/09/14 00:33:23;;;;;;;;;;;19.80;65.70;;;;;;5050819;28;20091;-70
2023/09/14 00:35:49;;;;;;;;;;;19.80;65.70;;;;;;5067009;28;19935;-70
2023/09/14 00:38:15;;;;;;;;;;;19.80;65.00;;;;;;5051192;28;19920;-70
2023/09/14 00:40:41;;;;;;;;;;;19.80;65.40;;;;;;5051185;28;20392;-70
2023/09/14 00:43:07;;;;;;;;;;;19.80;65.30;;;;;;5067535;28;19982;-70
2023/09/14 00:45:33;;;;;;;;;;;19.80;65.40;;;;;;5051545;28;19921;-70
2023/09/14 00:48:02;;;;;;;;;;;19.80;65.50;;;;;;5067568;28;20312;-70
2023/09/14 00:50:29;;;;;;;;;;;19.80;65.50;;;;;;5051245;28;20417;-70
2023/09/14 00:53:15;;;;;;;;;;;19.80;65.70;;;;;;5050693;28;19920;-70
2023/09/14 00:55:43;;;;;;;;;;;19.70;65.80;;;;;;5066897;28;19967;-70
2023/09/14 00:58:14;;;;;;;;;;;19.70;66.00;;;;;;5050623;28;19920;-70
2023/09/14 01:00:42;;;;;;;;;;;19.70;66.00;;;;;;5065651;28;19921;-70
2023/09/14 01:03:07;;;;;;;;;;;19.70;66.00;;;;;;5033863;28;19913;-70
2023/09/14 01:05:34;;;;;;;;;;;19.70;66.50;;;;;;5051252;28;19921;-70
2023/09/14 01:08:00;;;;;;;;;;;19.60;66.30;;;;;;5051747;28;19912;-70
2023/09/14 01:10:26;;;;;;;;;;;19.60;66.30;;;;;;5066178;28;20290;-70
2023/09/14 01:12:52;;;;;;;;;;;19.50;65.80;;;;;;5050550;28;20385;-70
2023/09/14 01:15:21;;;;;;;;;;;19.60;65.70;;;;;;5051186;28;19917;-70
2023/09/14 01:18:05;;;;;;;;;;;19.60;66.30;;;;;;5051693;28;20011;-70
2023/09/14 01:20:53;;;;;;;;;;;19.50;66.50;;;;;;5050668;28;19982;-70
2023/09/14 01:23:24;;;;;;;;;;;19.50;66.50;;;;;;5050391;28;20342;-70
2023/09/14 01:25:52;;;;;;;;;;;19.50;66.30;;;;;;5050041;28;19921;-70
2023/09/14 01:28:19;;;;;;;;;;;19.40;65.70;;;;;;5066814;28;19999;-70
2023/09/14 01:30:45;;;;;;;;;;;19.40;65.80;;;;;;5067619;28;19931;-70
2023/09/14 01:33:13;;;;;;;;;;;19.30;66.10;;;;;;5054204;28;20448;-70
2023/09/14 01:36:01;;;;;;;;;;;19.30;65.90;;;;;;5053439;28;19917;-70
2023/09/14 01:38:28;;;;;;;;;;;19.30;66.20;;;;;;5053897;28;19932;-70
2023/09/14 01:40:54;;;;;;;;;;;19.20;66.10;;;;;;5069304;28;19928;-70
2023/09/14 01:43:20;;;;;;;;;;;19.20;66.20;;;;;;5054931;28;19921;-70
2023/09/14 01:45:47;;;;;;;;;;;19.20;66.20;;;;;;5054658;28;20393;-70
2023/09/14 01:48:32;;;;;;;;;;;19.20;65.70;;;;;;5055240;28;20400;-70
2023/09/14 01:50:58;;;;;;;;;;;19.10;65.90;;;;;;5054332;28;19927;-70
2023/09/14 01:53:24;;;;;;;;;;;19.10;66.10;;;;;;5054787;28;19913;-70
2023/09/14 01:55:49;;;;;;;;;;;19.00;66.20;;;;;;5054264;28;19917;-70
2023/09/14 01:58:15;;;;;;;;;;;19.00;66.20;;;;;;5053616;28;19923;-70
2023/09/14 02:00:41;;;;;;;;;;;19.00;66.40;;;;;;5053951;28;20016;-70
2023/09/14 02:03:07;;;;;;;;;;;18.90;66.30;;;;;;5054739;28;20357;-70
2023/09/14 02:05:34;;;;;;;;;;;18.90;66.70;;;;;;5069748;28;19928;-70
2023/09/14 02:08:00;;;;;;;;;;;18.90;66.90;;;;;;5070034;28;20292;-70
2023/09/14 02:10:26;;;;;;;;;;;18.90;67.40;;;;;;5069318;28;20175;-70
2023/09/14 02:12:52;;;;;;;;;;;18.90;67.30;;;;;;5069867;28;19958;-70
2023/09/14 02:15:18;;;;;;;;;;;18.90;67.20;;;;;;5054196;28;19920;-70
2023/09/14 02:17:44;;;;;;;;;;;18.90;67.20;;;;;;5054428;28;19917;-70
2023/09/14 02:20:10;;;;;;;;;;;18.90;67.20;;;;;;5068820;28;19917;-70
2023/09/14 02:22:36;;;;;;;;;;;18.90;67.00;;;;;;5069709;28;19958;-70
2023/09/14 02:25:02;;;;;;;;;;;18.80;67.30;;;;;;5069882;28;19920;-70
2023/09/14 02:27:28;;;;;;;;;;;18.80;67.50;;;;;;5054250;28;19913;-70
2023/09/14 02:29:55;;;;;;;;;;;18.70;67.00;;;;;;5069707;28;19932;-70
2023/09/14 02:32:21;;;;;;;;;;;18.80;67.40;;;;;;5068723;28;19916;-70
2023/09/14 02:37:33;;;;;;;;;;;18.70;67.20;;;;;;5066796;28;19913;-70
2023/09/14 02:39:59;;;;;;;;;;;18.70;67.40;;;;;;5054239;28;19920;-71
2023/09/14 02:42:25;;;;;;;;;;;18.70;67.40;;;;;;5051842;28;19921;-70
2023/09/14 02:44:51;;;;;;;;;;;18.70;67.40;;;;;;5053727;28;19920;-70
2023/09/14 02:47:17;;;;;;;;;;;18.70;67.50;;;;;;5068850;28;19923;-70
2023/09/14 02:49:43;;;;;;;;;;;18.70;67.40;;;;;;5052471;28;19920;-70
2023/09/14 02:52:08;;;;;;;;;;;18.80;67.40;;;;;;5052827;28;19924;-70
2023/09/14 02:54:34;;;;;;;;;;;18.80;67.50;;;;;;5069066;28;20359;-70
2023/09/14 02:57:00;;;;;;;;;;;18.70;67.60;;;;;;5053341;28;20467;-70
2023/09/14 02:59:26;;;;;;;;;;;18.80;67.50;;;;;;5053627;28;19925;-70
2023/09/14 03:01:52;;;;;;;;;;;18.70;67.40;;;;;;5052559;28;20271;-70
2023/09/14 03:04:18;;;;;;;;;;;18.70;67.70;;;;;;5053527;28;20012;-70
2023/09/14 03:06:44;;;;;;;;;;;18.70;67.80;;;;;;5051714;28;20374;-71
2023/09/14 03:09:10;;;;;;;;;;;18.70;67.90;;;;;;5053297;28;19920;-70
2023/09/14 03:11:36;;;;;;;;;;;18.70;67.90;;;;;;5051042;28;19962;-70
2023/09/14 03:14:02;;;;;;;;;;;18.60;67.80;;;;;;5053414;28;20004;-70
2023/09/14 03:16:28;;;;;;;;;;;18.60;67.90;;;;;;5051662;28;19916;-70
2023/09/14 03:18:54;;;;;;;;;;;18.50;67.90;;;;;;5052219;28;19919;-70
2023/09/14 03:21:38;;;;;;;;;;;18.60;68.00;;;;;;5067786;28;19962;-70
2023/09/14 03:24:04;;;;;;;;;;;18.50;67.90;;;;;;5053211;28;19928;-70
2023/09/14 03:26:30;;;;;;;;;;;18.50;67.40;;;;;;5052944;28;19919;-70
2023/09/14 03:28:56;;;;;;;;;;;18.50;67.90;;;;;;5053049;28;19928;-70
2023/09/14 03:31:22;;;;;;;;;;;18.50;68.10;;;;;;5052211;28;20399;-70
2023/09/14 03:33:51;;;;;;;;;;;18.50;68.00;;;;;;5052896;28;19919;-70
2023/09/14 03:36:18;;;;;;;;;;;18.50;67.70;;;;;;5034675;28;20420;-70
2023/09/14 03:38:44;;;;;;;;;;;18.40;67.80;;;;;;5068302;28;19917;-70
2023/09/14 03:43:54;;;;;;;;;;;18.40;67.80;;;;;;5065646;28;19923;-70
2023/09/14 03:46:20;;;;;;;;;;;18.30;67.70;;;;;;5067781;28;19913;-70
2023/09/14 03:48:46;;;;;;;;;;;18.30;67.50;;;;;;5052661;28;20418;-70
2023/09/14 03:51:12;;;;;;;;;;;18.20;67.40;;;;;;5051692;28;19921;-70
2023/09/14 03:53:38;;;;;;;;;;;18.20;67.60;;;;;;5050829;28;19958;-70
2023/09/14 03:56:04;;;;;;;;;;;18.20;67.60;;;;;;5067674;28;19912;-70
2023/09/14 03:58:31;;;;;;;;;;;18.10;67.10;;;;;;5067890;28;19948;-70
2023/09/14 04:00:56;;;;;;;;;;;18.20;67.60;;;;;;5051484;28;19951;-70
2023/09/14 04:03:22;;;;;;;;;;;18.10;67.90;;;;;;5050955;28;20401;-70
2023/09/14 04:05:48;;;;;;;;;;;18.20;67.80;;;;;;5052433;28;19927;-70
2023/09/14 04:08:14;;;;;;;;;;;18.20;67.90;;;;;;5067903;28;19967;-70
2023/09/14 04:10:41;;;;;;;;;;;18.20;67.90;;;;;;5066905;28;19921;-70
2023/09/14 04:13:29;;;;;;;;;;;18.20;67.10;;;;;;5067703;28;19992;-70
2023/09/14 04:16:15;;;;;;;;;;;18.30;67.80;;;;;;5052392;28;20040;-70
2023/09/14 04:18:41;;;;;;;;;;;18.30;67.80;;;;;;5052190;28;20000;-70
2023/09/14 04:21:07;;;;;;;;;;;18.30;68.00;;;;;;5051321;28;19943;-70
2023/09/14 04:23:32;;;;;;;;;;;18.30;68.00;;;;;;5052158;28;19934;-70
2023/09/14 04:26:00;;;;;;;;;;;18.30;68.00;;;;;;5052280;28;20375;-70
2023/09/14 04:28:26;;;;;;;;;;;18.30;67.80;;;;;;5067572;28;19920;-70
2023/09/14 04:30:54;;;;;;;;;;;18.30;68.00;;;;;;5051169;28;20300;-70
2023/09/14 04:33:23;;;;;;;;;;;18.20;67.80;;;;;;5067586;28;20015;-70
2023/09/14 04:35:55;;;;;;;;;;;18.20;67.70;;;;;;5050585;28;19917;-70
2023/09/14 04:38:21;;;;;;;;;;;18.10;67.60;;;;;;5067378;28;19924;-70
2023/09/14 04:40:48;;;;;;;;;;;18.10;67.80;;;;;;5050953;28;19931;-70
2023/09/14 04:43:14;;;;;;;;;;;18.10;67.90;;;;;;5051835;28;19922;-70
2023/09/14 04:45:40;;;;;;;;;;;18.10;67.90;;;;;;5067044;28;19921;-70
2023/09/14 04:48:07;;;;;;;;;;;18.10;68.20;;;;;;5067483;28;20425;-70
2023/09/14 04:50:33;;;;;;;;;;;18.00;67.80;;;;;;5066496;28;19921;-70
2023/09/14 04:52:59;;;;;;;;;;;18.10;67.80;;;;;;5067526;28;19938;-70
2023/09/14 04:55:25;;;;;;;;;;;18.10;67.10;;;;;;5051708;28;19924;-70
2023/09/14 04:57:51;;;;;;;;;;;18.10;67.00;;;;;;5051914;28;19921;-70
2023/09/14 05:00:18;;;;;;;;;;;18.10;67.60;;;;;;5050808;28;19932;-70
2023/09/14 05:02:43;;;;;;;;;;;18.10;67.80;;;;;;5067299;28;20417;-70
2023/09/14 05:05:10;;;;;;;;;;;18.10;67.90;;;;;;5052512;28;19920;-70
2023/09/14 05:07:38;;;;;;;;;;;18.10;67.90;;;;;;5054601;28;19919;-70
2023/09/14 05:10:04;;;;;;;;;;;18.20;67.90;;;;;;5070382;28;19974;-71
2023/09/14 05:12:30;;;;;;;;;;;18.10;67.80;;;;;;5037383;28;20003;-70
2023/09/14 05:14:56;;;;;;;;;;;18.20;68.50;;;;;;5071138;28;19921;-70
2023/09/14 05:17:22;;;;;;;;;;;18.20;68.40;;;;;;5070622;28;19920;-70
2023/09/14 05:19:47;;;;;;;;;;;18.30;68.50;;;;;;5054188;28;20296;-70
2023/09/14 05:22:14;;;;;;;;;;;18.40;68.00;;;;;;5053368;28;19927;-70
2023/09/14 05:24:40;;;;;;;;;;;18.50;68.00;;;;;;5055609;28;19921;-70
2023/09/14 05:27:06;;;;;;;;;;;18.60;68.10;;;;;;5070526;28;19990;-70
2023/09/14 05:29:32;;;;;;;;;;;18.70;67.20;;;;;;5054016;28;19916;-70
2023/09/14 05:31:58;;;;;;;;;;;18.80;67.60;;;;;;5054686;28;19924;-70
2023/09/14 05:34:24;;;;;;;;;;;18.90;67.70;;;;;;5070794;28;19924;-70
2023/09/14 05:36:52;;;;;;;;;;;19.00;67.40;;;;;;5053896;28;19920;-70
2023/09/14 05:39:18;;;;;;;;;;;19.20;67.20;;;;;;5053724;28;19920;-70
2023/09/14 05:41:45;;;;;;;;;;;19.20;68.00;;;;;;5036267;28;19921;-70
2023/09/14 05:44:11;;;;;;;;;;;19.30;67.80;;;;;;5070150;28;20283;-70
2023/09/14 05:46:37;;;;;;;;;;;19.40;68.20;;;;;;5070389;28;19916;-70
2023/09/14 05:49:03;;;;;;;;;;;19.50;67.90;;;;;;5070359;28;19963;-70
2023/09/14 05:51:29;;;;;;;;;;;19.60;68.70;;;;;;5069498;28;20389;-70
2023/09/14 05:53:56;;;;;;;;;;;19.60;68.50;;;;;;5070251;28;20707;-70
2023/09/14 05:56:22;;;;;;;;;;;19.70;68.50;;;;;;5054601;28;19917;-70
2023/09/14 05:58:48;;;;;;;;;;;19.70;68.10;;;;;;5070171;28;19955;-70
2023/09/14 06:01:14;;;;;;;;;;;19.80;68.40;;;;;;5069327;28;19916;-70
2023/09/14 06:03:40;;;;;;;;;;;20.00;68.10;;;;;;5054612;28;19913;-70
2023/09/14 06:06:06;;;;;;;;;;;20.10;67.80;;;;;;5054258;28;19938;-70
2023/09/14 06:08:32;;;;;;;;;;;20.20;68.10;;;;;;5070204;28;19975;-70
2023/09/14 06:10:59;;;;;;;;;;;20.30;68.50;;;;;;5069061;28;20381;-70
2023/09/14 06:13:25;;;;;;;;;;;20.40;67.90;;;;;;5053178;28;20019;-70
2023/09/14 06:15:51;;;;;;;;;;;20.60;67.90;;;;;;5069708;28;19923;-70
2023/09/14 06:18:17;;;;;;;;;;;20.70;67.50;;;;;;5054499;28;19923;-70
2023/09/14 06:20:43;;;;;;;;;;;20.70;67.20;;;;;;5053627;28;19928;-70
2023/09/14 06:23:09;;;;;;;;;;;20.80;66.90;;;;;;5053106;28;20361;-70
2023/09/14 06:25:35;;;;;;;;;;;20.80;67.00;;;;;;5054321;28;19920;-70
2023/09/14 06:28:01;;;;;;;;;;;21.00;67.30;;;;;;5053075;28;20263;-70
2023/09/14 06:30:27;;;;;;;;;;;20.90;67.40;;;;;;5068633;28;19928;-70
2023/09/14 06:32:53;;;;;;;;;;;20.90;68.20;;;;;;5054670;28;19916;-70
2023/09/14 06:35:19;;;;;;;;;;;20.90;68.30;;;;;;5069141;28;19967;-70
2023/09/14 06:37:46;;;;;;;;;;;20.90;68.70;;;;;;5069601;28;19916;-70
2023/09/14 06:40:12;;;;;;;;;;;20.80;68.90;;;;;;5053186;28;20357;-70
2023/09/14 06:42:38;;;;;;;;;;;20.80;69.40;;;;;;5052750;28;20007;-70
2023/09/14 06:45:06;;;;;;;;;;;20.80;69.50;;;;;;5053667;28;19955;-70
2023/09/14 06:47:31;;;;;;;;;;;20.80;69.60;;;;;;5069337;28;19963;-70
2023/09/14 06:49:57;;;;;;;;;;;20.80;70.10;;;;;;5054101;28;19929;-70
2023/09/14 06:52:23;;;;;;;;;;;20.80;70.30;;;;;;5052915;28;19917;-70
2023/09/14 06:54:49;;;;;;;;;;;20.80;70.80;;;;;;5069399;28;19920;-70
2023/09/14 06:57:16;;;;;;;;;;;20.80;71.10;;;;;;5052007;28;20319;-70
2023/09/14 06:59:42;;;;;;;;;;;20.70;70.70;;;;;;5053816;28;19921;-70
2023/09/14 07:02:08;;;;;;;;;;;20.60;71.10;;;;;;5068138;28;20316;-70
2023/09/14 07:04:34;;;;;;;;;;;20.70;71.10;;;;;;5052231;28;20369;-70
2023/09/14 07:07:01;;;;;;;;;;;20.70;70.80;;;;;;5068505;28;19912;-70
2023/09/14 07:09:28;;;;;;;;;;;20.70;70.60;;;;;;5066532;28;19929;-70
2023/09/14 07:11:54;;;;;;;;;;;20.80;70.20;;;;;;5030106;28;19921;-70
2023/09/14 07:14:20;;;;;;;;;;;20.80;70.20;;;;;;5033442;28;19928;-70
2023/09/14 07:16:46;;;;;;;;;;;20.80;70.80;;;;;;5033008;28;19917;-70
2023/09/14 07:19:13;;;;;;;;;;;20.80;71.30;;;;;;5031823;28;19967;-70
2023/09/14 07:21:39;;;;;;;;;;;20.80;71.40;;;;;;5032606;28;19916;-70
2023/09/14 07:24:26;;;;;;;;;;;20.80;71.50;;;;;;5031738;28;20365;-70
2023/09/14 07:26:52;;;;;;;;;;;20.80;72.00;;;;;;5033003;28;19913;-70
2023/09/14 07:29:19;;;;;;;;;;;20.80;72.60;;;;;;5032584;28;19928;-70
2023/09/14 07:31:46;;;;;;;;;;;20.80;72.90;;;;;;5030830;28;19921;-70
2023/09/14 07:34:13;;;;;;;;;;;20.80;73.30;;;;;;5033133;28;19921;-70
2023/09/14 07:36:39;;;;;;;;;;;20.80;73.60;;;;;;5033188;28;20444;-70
2023/09/14 07:39:05;;;;;;;;;;;20.90;73.80;;;;;;5048222;28;19921;-70
2023/09/14 07:41:31;;;;;;;;;;;21.00;73.60;;;;;;5031996;28;20380;-70
2023/09/14 07:43:57;;;;;;;;;;;21.20;73.00;;;;;;5032377;28;20011;-70
2023/09/14 07:46:23;;;;;;;;;;;21.50;72.90;;;;;;5032616;28;19935;-70
2023/09/14 07:48:49;;;;;;;;;;;21.70;72.80;;;;;;5032767;28;20012;-70
2023/09/14 07:51:15;;;;;;;;;;;21.90;72.30;;;;;;5030589;28;19917;-70
2023/09/14 07:53:41;;;;;;;;;;;22.10;71.70;;;;;;5031553;28;19916;-70
2023/09/14 07:56:07;;;;;;;;;;;22.30;71.40;;;;;;5032474;28;19920;-70
2023/09/14 07:58:33;;;;;;;;;;;22.60;71.00;;;;;;5032643;28;19959;-70
2023/09/14 08:00:59;;;;;;;;;;;23.30;69.50;;;;;;5031900;28;19920;-70
2023/09/14 08:03:28;;;;;;;;;;;23.50;68.90;;;;;;5031238;28;20370;-70
2023/09/14 08:05:54;;;;;;;;;;;23.80;68.20;;;;;;5032025;28;19921;-70
2023/09/14 08:08:20;;;;;;;;;;;23.90;67.80;;;;;;5031265;28;19917;-70
2023/09/14 08:11:05;;;;;;;;;;;24.00;67.60;;;;;;5031663;28;20370;-70
2023/09/14 08:13:31;;;;;;;;;;;24.10;67.30;;;;;;5032314;28;20138;-70
2023/09/14 08:15:57;;;;;;;;;;;24.20;66.90;;;;;;5047420;28;19921;-70
2023/09/14 08:18:22;;;;;;;;;;;24.20;66.70;;;;;;5047665;28;20016;-70
2023/09/14 08:20:48;;;;;;;;;;;24.20;66.70;;;;;;5031465;28;20304;-70
2023/09/14 08:23:19;;;;;;;;;;;24.30;66.50;;;;;;5047612;28;19912;-70
2023/09/14 08:25:46;;;;;;;;;;;24.30;66.00;;;;;;5046866;28;19921;-70
2023/09/14 08:28:30;;;;;;;;;;;24.40;65.80;;;;;;5031021;28;19917;-70
2023/09/14 08:30:56;;;;;;;;;;;24.40;65.40;;;;;;5031441;28;20385;-70
2023/09/14 08:33:23;;;;;;;;;;;24.40;65.20;;;;;;5030814;28;19960;-70
2023/09/14 08:35:49;;;;;;;;;;;24.40;64.70;;;;;;5046967;28;20353;-70
2023/09/14 08:38:16;;;;;;;;;;;24.40;64.50;;;;;;5032067;28;19917;-70
2023/09/14 08:40:43;;;;;;;;;;;24.40;64.30;;;;;;5033246;28;19928;-70
2023/09/14 08:43:27;;;;;;;;;;;24.40;64.40;;;;;;5034866;28;19917;-70
2023/09/14 08:45:55;;;;;;;;;;;24.40;64.30;;;;;;5035841;28;20293;-70
2023/09/14 08:48:23;;;;;;;;;;;24.40;64.20;;;;;;5036159;28;19932;-70
2023/09/14 08:50:49;;;;;;;;;;;24.40;64.20;;;;;;5050513;28;20447;-70
2023/09/14 08:53:16;;;;;;;;;;;24.40;64.20;;;;;;5036162;28;20412;-70
2023/09/14 08:55:43;;;;;;;;;;;24.30;64.20;;;;;;5035876;28;20381;-70
2023/09/14 08:58:11;;;;;;;;;;;24.30;64.40;;;;;;5035963;28;19912;-70
2023/09/14 09:00:37;;;;;;;;;;;24.30;64.00;;;;;;5035301;28;19920;-70
2023/09/14 09:03:03;;;;;;;;;;;24.30;63.60;;;;;;5034609;28;19913;-70
2023/09/14 09:05:29;;;;;;;;;;;24.30;64.20;;;;;;5035687;28;19921;-70
2023/09/14 09:07:56;;;;;;;;;;;24.30;64.20;;;;;;5051298;28;19917;-70
2023/09/14 09:10:41;;;;;;;;;;;24.30;64.10;;;;;;5033572;28;19989;-70
2023/09/14 09:13:07;;;;;;;;;;;24.30;64.40;;;;;;5017918;28;19974;-70
2023/09/14 09:15:36;;;;;;;;;;;24.20;64.90;;;;;;5035580;28;19921;-70
2023/09/14 09:18:07;;;;;;;;;;;24.10;65.80;;;;;;5018158;28;19967;-70
2023/09/14 09:20:34;;;;;;;;;;;24.10;66.40;;;;;;5034873;28;19928;-70
2023/09/14 09:23:00;;;;;;;;;;;24.00;66.60;;;;;;5034286;28;19917;-70
2023/09/14 09:25:29;;;;;;;;;;;23.90;67.10;;;;;;5034047;28;19927;-70
2023/09/14 09:28:14;;;;;;;;;;;23.90;67.50;;;;;;5034313;28;19917;-70
2023/09/14 09:30:40;;;;;;;;;;;23.80;67.50;;;;;;5029947;28;19928;-70
2023/09/14 09:33:07;;;;;;;;;;;23.90;67.30;;;;;;5030765;28;19920;-71
2023/09/14 09:35:37;;;;;;;;;;;23.80;67.70;;;;;;5014055;28;20012;-70
2023/09/14 09:38:24;;;;;;;;;;;23.80;68.00;;;;;;5014326;28;19913;-70
2023/09/14 09:40:50;;;;;;;;;;;23.80;68.00;;;;;;5013275;28;19921;-70
2023/09/14 09:43:16;;;;;;;;;;;23.80;68.00;;;;;;5014092;28;19960;-70
2023/09/14 09:45:42;;;;;;;;;;;23.70;67.90;;;;;;5015085;28;19948;-70
2023/09/14 09:48:09;;;;;;;;;;;23.80;68.70;;;;;;5047236;28;19961;-70
2023/09/14 09:50:35;;;;;;;;;;;23.70;68.90;;;;;;5012783;28;20437;-70
2023/09/14 09:53:02;;;;;;;;;;;23.70;69.40;;;;;;5030614;28;20301;-70
2023/09/14 09:55:30;;;;;;;;;;;23.70;68.90;;;;;;5030011;28;20295;-70
2023/09/14 09:57:57;;;;;;;;;;;23.80;69.60;;;;;;5030362;28;19913;-70
2023/09/14 10:00:41;;;;;;;;;;;23.70;69.70;;;;;;5015697;28;20389;-70
2023/09/14 10:03:07;;;;;;;;;;;23.70;70.00;;;;;;5034892;28;19917;-70
2023/09/14 10:05:40;;;;;;;;;;;23.70;70.00;;;;;;5033237;28;19921;-70
2023/09/14 10:08:25;;;;;;;;;;;23.70;69.80;;;;;;5033607;28;19967;-70
2023/09/14 10:10:52;;;;;;;;;;;23.60;69.60;;;;;;5027203;28;19922;-70
2023/09/14 10:13:36;;;;;;;;;;;23.60;69.70;;;;;;5030140;28;19917;-70
2023/09/14 10:16:02;;;;;;;;;;;23.60;69.80;;;;;;5029882;28;19944;-70
2023/09/14 10:18:29;;;;;;;;;;;23.60;69.50;;;;;;5013869;28;19921;-70
2023/09/14 10:20:55;;;;;;;;;;;23.70;70.40;;;;;;5019627;28;19928;-70
2023/09/14 10:23:22;;;;;;;;;;;23.70;70.20;;;;;;5033240;28;19913;-70
2023/09/14 10:25:50;;;;;;;;;;;23.70;70.40;;;;;;5033081;28;19924;-70
2023/09/14 10:28:36;;;;;;;;;;;23.70;70.50;;;;;;5033160;28;19947;-70
2023/09/14 10:31:02;;;;;;;;;;;23.70;70.10;;;;;;5033536;28;19956;-70
2023/09/14 10:33:28;;;;;;;;;;;23.80;70.10;;;;;;5049804;28;20316;-71
2023/09/14 10:35:55;;;;;;;;;;;23.80;69.50;;;;;;5034293;28;19917;-70
2023/09/14 10:38:23;;;;;;;;;;;23.80;70.10;;;;;;5049521;28;20282;-70
2023/09/14 10:41:11;;;;;;;;;;;23.80;70.00;;;;;;5031774;28;19924;-70
2023/09/14 10:43:39;;;;;;;;;;;23.80;70.30;;;;;;5033894;28;19948;-70
2023/09/14 10:46:09;;;;;;;;;;;23.90;70.50;;;;;;5049066;28;19952;-70
2023/09/14 10:48:35;;;;;;;;;;;24.10;69.90;;;;;;5049592;28;19920;-70
2023/09/14 10:51:01;;;;;;;;;;;24.20;69.40;;;;;;5033078;28;19921;-70
2023/09/14 10:53:28;;;;;;;;;;;24.30;68.50;;;;;;5032816;28;19913;-70
2023/09/14 10:55:55;;;;;;;;;;;24.30;68.40;;;;;;5032440;28;19921;-70
2023/09/14 10:58:21;;;;;;;;;;;24.40;67.30;;;;;;5049258;28;19917;-70
2023/09/14 11:00:55;;;;;;;;;;;24.60;67.30;;;;;;5032932;28;20278;-70
2023/09/14 11:03:22;;;;;;;;;;;24.90;66.60;;;;;;5048108;28;19913;-70
2023/09/14 11:05:50;;;;;;;;;;;25.00;66.10;;;;;;5048732;28;19916;-70
2023/09/14 11:08:18;;;;;;;;;;;25.10;65.00;;;;;;5032415;28;20356;-70
2023/09/14 11:11:04;;;;;;;;;;;25.10;63.50;;;;;;5031288;28;19925;-70
2023/09/14 11:13:32;;;;;;;;;;;25.20;62.90;;;;;;5032105;28;19916;-70
2023/09/14 11:16:18;;;;;;;;;;;25.40;61.90;;;;;;5048319;28;19964;-70
2023/09/14 11:18:44;;;;;;;;;;;25.50;61.00;;;;;;5031905;28;20400;-70
2023/09/14 11:21:47;;;;;;;;;;;25.60;59.80;;;;;;5032586;28;19964;-70
2023/09/14 11:24:13;;;;;;;;;;;25.90;59.60;;;;;;5033200;28;19979;-70
2023/09/14 11:26:44;;;;;;;;;;;26.20;59.00;;;;;;5048328;28;19917;-70
2023/09/14 11:29:11;;;;;;;;;;;26.30;56.90;;;;;;5032126;28;20349;-70
2023/09/14 11:31:37;;;;;;;;;;;26.50;55.30;;;;;;5031158;28;19920;-70
2023/09/14 11:34:21;;;;;;;;;;;26.60;56.00;;;;;;5033216;28;19924;-70
2023/09/14 11:36:47;;;;;;;;;;;26.60;53.40;;;;;;5031459;28;19917;-70
2023/09/14 11:39:14;;;;;;;;;;;26.60;54.10;;;;;;5033017;28;19971;-70
2023/09/14 11:42:00;;;;;;;;;;;26.70;52.60;;;;;;5030721;28;19967;-70
2023/09/14 11:44:48;;;;;;;;;;;26.70;53.30;;;;;;5031473;28;20019;-70
2023/09/14 11:47:14;;;;;;;;;;;26.80;51.90;;;;;;5032634;28;19970;-70
2023/09/14 11:49:40;;;;;;;;;;;26.70;52.40;;;;;;5031544;28;20312;-70
2023/09/14 11:52:10;;;;;;;;;;;26.60;52.30;;;;;;5047018;28;19984;-70
2023/09/14 11:54:36;;;;;;;;;;;26.60;52.80;;;;;;5031580;28;19923;-70
2023/09/14 11:57:40;;;;;;;;;;;26.90;52.90;;;;;;5031054;28;20288;-70
2023/09/14 12:00:07;;;;;;;;;;;27.00;52.40;;;;;;5032147;28;19917;-70
2023/09/14 12:02:34;;;;;;;;;;;27.10;51.90;;;;;;5047967;28;19917;-70
2023/09/14 12:05:00;;;;;;;;;;;27.10;51.60;;;;;;5032668;28;19924;-70
2023/09/14 12:07:27;;;;;;;;;;;27.10;51.90;;;;;;5030902;28;19917;-70
2023/09/14 12:09:54;;;;;;;;;;;27.10;51.40;;;;;;5047801;28;19917;-70
2023/09/14 12:12:38;;;;;;;;;;;27.00;51.40;;;;;;5031451;28;19927;-70
2023/09/14 12:15:05;;;;;;;;;;;26.90;51.00;;;;;;5032319;28;19924;-70
2023/09/14 12:17:30;;;;;;;;;;;27.00;52.00;;;;;;5032685;28;20012;-70
2023/09/14 12:19:59;;;;;;;;;;;27.20;51.60;;;;;;5032736;28;19925;-70
2023/09/14 12:22:31;;;;;;;;;;;27.40;50.80;;;;;;5030267;28;20028;-70
2023/09/14 12:24:58;;;;;;;;;;;27.50;49.70;;;;;;5032512;28;19921;-70
2023/09/14 12:27:24;;;;;;;;;;;27.80;48.90;;;;;;5031951;28;20397;-70
2023/09/14 12:29:51;;;;;;;;;;;28.20;49.30;;;;;;5032235;28;20008;-70
2023/09/14 12:32:17;;;;;;;;;;;28.60;46.90;;;;;;5030214;28;20309;-70
2023/09/14 12:34:44;;;;;;;;;;;28.60;45.70;;;;;;5047568;28;19921;-70
2023/09/14 12:37:10;;;;;;;;;;;28.60;45.50;;;;;;5030596;28;19967;-70
2023/09/14 12:39:36;;;;;;;;;;;28.60;45.60;;;;;;5030862;28;19917;-70
2023/09/14 12:42:03;;;;;;;;;;;28.50;45.00;;;;;;5031037;28;19925;-70
2023/09/14 12:44:30;;;;;;;;;;;28.60;46.00;;;;;;5030659;28;20432;-70
2023/09/14 12:46:56;;;;;;;;;;;28.70;46.50;;;;;;5030487;28;19917;-70
2023/09/14 12:49:23;;;;;;;;;;;28.60;45.60;;;;;;5032020;28;20336;-70
2023/09/14 12:51:50;;;;;;;;;;;28.40;46.20;;;;;;5029877;28;20278;-70
2023/09/14 12:54:22;;;;;;;;;;;28.20;46.40;;;;;;5030842;28;19992;-70
2023/09/14 12:56:49;;;;;;;;;;;28.20;46.80;;;;;;5013949;28;19921;-70
2023/09/14 12:59:15;;;;;;;;;;;28.30;47.60;;;;;;5032084;28;20011;-70
2023/09/14 13:01:41;;;;;;;;;;;28.40;46.20;;;;;;5031185;28;20386;-70
2023/09/14 13:06:51;;;;;;;;;;;28.80;45.20;;;;;;5031707;28;19923;-70
2023/09/14 13:09:19;;;;;;;;;;;28.80;45.40;;;;;;5047166;28;19917;-70
2023/09/14 13:11:51;;;;;;;;;;;28.70;45.90;;;;;;5029846;28;19928;-70
2023/09/14 13:14:37;;;;;;;;;;;28.50;45.80;;;;;;5047232;28;19921;-70
2023/09/14 13:17:03;;;;;;;;;;;28.40;46.40;;;;;;5031504;28;19947;-70
2023/09/14 13:19:29;;;;;;;;;;;28.20;46.50;;;;;;5030426;28;19928;-71
2023/09/14 13:22:14;;;;;;;;;;;28.00;48.20;;;;;;5029700;28;20396;-70
2023/09/14 13:24:40;;;;;;;;;;;27.90;47.00;;;;;;5030547;28;19917;-70
2023/09/14 13:27:06;;;;;;;;;;;27.70;47.30;;;;;;5033694;28;19940;-71
2023/09/14 13:29:32;;;;;;;;;;;27.60;46.90;;;;;;5035587;28;20374;-70
2023/09/14 13:31:58;;;;;;;;;;;27.50;47.00;;;;;;5034679;28;19929;-70
2023/09/14 13:34:26;;;;;;;;;;;27.40;47.30;;;;;;5050724;28;19917;-70
2023/09/14 13:36:52;;;;;;;;;;;27.30;47.80;;;;;;5034966;28;19951;-70
2023/09/14 13:39:19;;;;;;;;;;;27.30;48.20;;;;;;5035375;28;20254;-70
2023/09/14 13:41:45;;;;;;;;;;;27.20;48.30;;;;;;5049653;28;19928;-70
2023/09/14 13:44:10;;;;;;;;;;;27.10;48.40;;;;;;5034967;28;20297;-70
2023/09/14 13:46:36;;;;;;;;;;;27.00;48.90;;;;;;5034897;28;19919;-70
2023/09/14 13:49:02;;;;;;;;;;;26.70;48.20;;;;;;5035094;28;19925;-70
2023/09/14 13:51:28;;;;;;;;;;;26.40;48.10;;;;;;5034134;28;19925;-71
2023/09/14 13:53:54;;;;;;;;;;;26.20;48.50;;;;;;5035014;28;19966;-70
2023/09/14 13:56:20;;;;;;;;;;;26.20;48.50;;;;;;5016752;28;20367;-70
2023/09/14 13:58:46;;;;;;;;;;;26.00;48.90;;;;;;5034872;28;19913;-70
2023/09/14 14:01:12;;;;;;;;;;;25.80;49.00;;;;;;5033842;28;19959;-70
2023/09/14 14:03:38;;;;;;;;;;;25.70;49.30;;;;;;5034561;28;19917;-70
2023/09/14 14:06:05;;;;;;;;;;;25.60;49.60;;;;;;5034348;28;19919;-70
2023/09/14 14:08:31;;;;;;;;;;;25.50;49.80;;;;;;5033336;28;19919;-70
2023/09/14 14:10:57;;;;;;;;;;;25.30;50.00;;;;;;5033467;28;19928;-70
2023/09/14 14:13:23;;;;;;;;;;;25.10;50.40;;;;;;5034613;28;19916;-70
2023/09/14 14:15:50;;;;;;;;;;;24.90;51.00;;;;;;5033082;28;19917;-70
2023/09/14 14:18:16;;;;;;;;;;;24.80;51.50;;;;;;5033362;28;19961;-70
2023/09/14 14:20:42;;;;;;;;;;;24.70;52.00;;;;;;5033852;28;20296;-70
2023/09/14 14:23:08;;;;;;;;;;;24.50;52.40;;;;;;5033351;28;19917;-70
2023/09/14 14:25:34;;;;;;;;;;;24.30;52.70;;;;;;5034332;28;20314;-70
2023/09/14 14:28:00;;;;;;;;;;;24.20;53.20;;;;;;5033282;28;19938;-70
2023/09/14 14:30:27;;;;;;;;;;;24.10;53.70;;;;;;5033570;28;19925;-70